createdAt,value
2018-09-06T00:00:50.976Z,99.90
2018-09-06T00:03:18.638Z,99.90
2018-09-06T00:05:46.277Z,99.90
2018-09-06T00:08:13.922Z,99.90
2018-09-06T00:10:41.549Z,99.90
2018-09-06T00:13:09.613Z,99.90
2018-09-06T00:15:37.214Z,99.90
2018-09-06T00:18:04.953Z,99.90
2018-09-06T00:20:32.595Z,99.90
2018-09-06T00:23:00.269Z,99.90
2018-09-06T00:25:27.860Z,99.90
2018-09-06T00:27:55.506Z,99.90
2018-09-06T00:30:23.206Z,99.90
2018-09-06T00:32:50.830Z,99.90
2018-09-06T00:35:18.421Z,99.90
2018-09-06T00:37:46.065Z,99.90
2018-09-06T00:40:14.570Z,99.90
2018-09-06T00:42:42.349Z,99.90
2018-09-06T00:45:09.949Z,99.90
2018-09-06T00:47:37.686Z,99.90
2018-09-06T00:50:09.905Z,99.90
2018-09-06T00:52:37.517Z,99.90
2018-09-06T00:55:05.956Z,99.90
2018-09-06T00:57:33.560Z,99.90
2018-09-06T01:00:01.210Z,99.90
2018-09-06T01:02:28.817Z,99.90
2018-09-06T01:04:56.553Z,99.90
2018-09-06T01:07:24.128Z,99.90
2018-09-06T01:09:51.825Z,99.90
2018-09-06T01:12:19.453Z,99.90
2018-09-06T01:14:47.096Z,99.90
2018-09-06T01:17:14.676Z,99.90
2018-09-06T01:19:43.048Z,99.90
2018-09-06T01:22:10.636Z,99.90
2018-09-06T01:24:38.480Z,99.90
2018-09-06T01:27:06.731Z,99.90
2018-09-06T01:29:34.332Z,99.90
2018-09-06T01:32:02.664Z,99.90
2018-09-06T01:34:30.289Z,99.90
2018-09-06T01:36:57.964Z,99.90
2018-09-06T01:39:26.125Z,99.90
2018-09-06T01:41:53.729Z,99.90
2018-09-06T01:44:21.570Z,99.90
2018-09-06T01:46:49.161Z,99.90
2018-09-06T01:49:16.792Z,99.90
2018-09-06T01:51:44.380Z,99.90
2018-09-06T01:54:12.968Z,99.90
2018-09-06T01:56:40.568Z,99.90
2018-09-06T01:59:08.193Z,99.90
2018-09-06T02:01:35.832Z,99.90
2018-09-06T02:04:03.461Z,99.90
2018-09-06T02:06:32.101Z,99.90
2018-09-06T02:08:59.844Z,99.90
2018-09-06T02:11:27.441Z,99.90
2018-09-06T02:13:55.090Z,99.90
2018-09-06T02:16:22.663Z,99.90
2018-09-06T02:18:50.304Z,99.90
2018-09-06T02:21:17.985Z,99.90
2018-09-06T02:23:45.588Z,99.90
2018-09-06T02:26:13.208Z,99.90
2018-09-06T02:28:40.849Z,99.90
2018-09-06T02:31:08.475Z,99.90
2018-09-06T02:33:36.068Z,99.90
2018-09-06T02:36:03.710Z,99.90
2018-09-06T02:38:31.286Z,99.90
2018-09-06T02:40:59.700Z,99.90
2018-09-06T02:43:27.273Z,99.90
2018-09-06T02:45:54.899Z,99.90
2018-09-06T02:48:27.017Z,99.90
2018-09-06T02:51:00.303Z,99.90
2018-09-06T02:53:31.276Z,99.90
2018-09-06T02:55:58.940Z,99.90
2018-09-06T02:58:26.515Z,99.90
2018-09-06T03:00:54.178Z,99.90
2018-09-06T03:03:21.755Z,99.90
2018-09-06T03:05:49.374Z,99.90
2018-09-06T03:08:16.952Z,99.90
2018-09-06T03:10:46.312Z,99.90
2018-09-06T03:13:13.909Z,99.90
2018-09-06T03:15:41.597Z,99.90
2018-09-06T03:18:09.198Z,99.90
2018-09-06T03:20:37.010Z,99.90
2018-09-06T03:23:05.272Z,99.90
2018-09-06T03:25:33.049Z,99.90
2018-09-06T03:28:01.803Z,99.90
2018-09-06T03:30:31.372Z,99.90
2018-09-06T03:32:58.944Z,99.90
2018-09-06T03:35:26.549Z,99.90
2018-09-06T03:37:54.179Z,99.90
2018-09-06T03:40:22.825Z,99.90
2018-09-06T03:42:50.444Z,99.90
2018-09-06T03:45:18.039Z,99.90
2018-09-06T03:47:45.663Z,99.90
2018-09-06T03:50:14.324Z,99.90
2018-09-06T03:52:41.912Z,99.90
2018-09-06T03:55:09.560Z,99.90
2018-09-06T03:57:37.212Z,99.90
2018-09-06T04:00:05.145Z,99.90
2018-09-06T04:02:33.740Z,99.90
2018-09-06T04:05:01.320Z,99.90
2018-09-06T04:07:28.993Z,99.90
2018-09-06T04:09:56.617Z,99.90
2018-09-06T04:12:24.268Z,99.90
2018-09-06T04:14:51.921Z,99.90
2018-09-06T04:17:19.485Z,99.90
2018-09-06T04:19:47.061Z,99.90
2018-09-06T04:22:14.669Z,99.90
2018-09-06T04:24:42.256Z,99.90
2018-09-06T04:27:09.850Z,99.90
2018-09-06T04:29:37.481Z,99.90
2018-09-06T04:32:05.168Z,99.90
2018-09-06T04:34:32.731Z,99.90
2018-09-06T04:37:00.316Z,99.90
2018-09-06T04:39:27.888Z,99.90
2018-09-06T04:41:55.478Z,99.90
2018-09-06T04:44:23.064Z,99.90
2018-09-06T04:46:51.536Z,99.90
2018-09-06T04:49:19.594Z,99.90
2018-09-06T04:51:47.994Z,99.90
2018-09-06T04:54:15.732Z,99.90
2018-09-06T04:56:43.321Z,99.90
2018-09-06T04:59:10.889Z,99.90
2018-09-06T05:01:38.796Z,99.90
2018-09-06T05:04:06.658Z,99.90
2018-09-06T05:06:34.366Z,99.90
2018-09-06T05:09:02.183Z,99.90
2018-09-06T05:11:29.825Z,99.90
2018-09-06T05:13:57.476Z,99.90
2018-09-06T05:16:25.116Z,99.90
2018-09-06T05:18:52.693Z,99.90
2018-09-06T05:21:20.272Z,99.90
2018-09-06T05:23:47.856Z,99.90
2018-09-06T05:26:15.447Z,99.90
2018-09-06T05:28:43.054Z,99.90
2018-09-06T05:31:10.679Z,99.90
2018-09-06T05:33:39.344Z,99.90
2018-09-06T05:36:06.990Z,99.90
2018-09-06T05:38:34.551Z,99.90
2018-09-06T05:41:02.152Z,99.90
2018-09-06T05:43:29.717Z,99.90
2018-09-06T05:45:57.337Z,99.90
2018-09-06T05:48:24.912Z,99.90
2018-09-06T05:50:52.493Z,99.90
2018-09-06T05:53:20.087Z,99.90
2018-09-06T05:55:47.769Z,99.90
2018-09-06T05:58:15.413Z,99.90
2018-09-06T06:00:47.105Z,99.90
2018-09-06T06:03:14.716Z,99.90
2018-09-06T06:05:42.309Z,99.90
2018-09-06T06:08:21.332Z,99.90
2018-09-06T06:10:48.981Z,99.90
2018-09-06T06:13:16.689Z,99.90
2018-09-06T06:15:44.317Z,99.90
2018-09-06T06:18:11.916Z,99.90
2018-09-06T06:20:39.785Z,99.90
2018-09-06T06:23:07.401Z,99.90
2018-09-06T06:25:35.026Z,99.90
2018-09-06T06:28:02.635Z,99.90
2018-09-06T06:30:30.235Z,99.90
2018-09-06T06:32:57.829Z,99.90
2018-09-06T06:35:25.480Z,99.90
2018-09-06T06:37:53.093Z,99.90
2018-09-06T06:40:20.680Z,99.90
2018-09-06T06:42:48.295Z,99.90
2018-09-06T06:45:15.877Z,99.90
2018-09-06T06:47:43.497Z,99.90
2018-09-06T06:50:11.170Z,99.90
2018-09-06T06:52:38.756Z,99.90
2018-09-06T06:55:06.544Z,99.90
2018-09-06T06:57:34.136Z,99.90
2018-09-06T07:00:01.747Z,99.90
2018-09-06T07:02:29.430Z,99.90
2018-09-06T07:04:57.012Z,99.90
2018-09-06T07:07:24.581Z,99.90
2018-09-06T07:09:52.245Z,99.90
2018-09-06T07:12:19.824Z,99.90
2018-09-06T07:14:47.384Z,99.90
2018-09-06T07:17:14.956Z,99.90
2018-09-06T07:19:42.511Z,99.90
2018-09-06T07:22:10.096Z,99.90
2018-09-06T07:24:37.677Z,99.90
2018-09-06T07:27:05.420Z,99.90
2018-09-06T07:29:32.988Z,99.90
2018-09-06T07:32:00.592Z,99.90
2018-09-06T07:34:28.197Z,99.90
2018-09-06T07:36:55.777Z,99.90
2018-09-06T07:39:23.353Z,99.90
2018-09-06T07:41:50.970Z,99.90
2018-09-06T07:44:18.576Z,99.90
2018-09-06T07:46:46.147Z,99.90
2018-09-06T07:49:13.754Z,99.90
2018-09-06T07:51:41.331Z,99.90
2018-09-06T07:54:08.892Z,99.90
2018-09-06T07:56:36.481Z,99.90
2018-09-06T07:59:04.097Z,99.90
2018-09-06T08:01:31.722Z,99.90
2018-09-06T08:03:59.326Z,99.90
2018-09-06T08:06:27.996Z,99.90
2018-09-06T08:08:55.573Z,99.90
2018-09-06T08:11:23.125Z,99.90
2018-09-06T08:13:50.733Z,99.90
2018-09-06T08:16:18.372Z,99.90
2018-09-06T08:18:45.977Z,99.90
2018-09-06T08:21:13.527Z,99.90
2018-09-06T08:23:41.103Z,99.90
2018-09-06T08:26:08.716Z,99.90
2018-09-06T08:28:36.297Z,99.90
2018-09-06T08:31:03.990Z,99.90
2018-09-06T08:33:31.474Z,99.90
2018-09-06T08:35:59.069Z,99.90
2018-09-06T08:38:26.644Z,99.90
2018-09-06T08:40:54.209Z,99.90
2018-09-06T08:43:21.796Z,99.90
2018-09-06T08:45:49.388Z,99.90
2018-09-06T08:48:16.968Z,99.90
2018-09-06T08:50:45.552Z,99.90
2018-09-06T08:53:13.137Z,99.90
2018-09-06T08:55:40.704Z,99.90
2018-09-06T08:58:08.283Z,99.90
2018-09-06T09:00:37.195Z,99.90
2018-09-06T09:03:05.671Z,99.90
2018-09-06T09:05:33.310Z,99.90
2018-09-06T09:08:00.879Z,99.90
2018-09-06T09:10:28.504Z,99.90
2018-09-06T09:12:56.111Z,99.90
2018-09-06T09:15:23.660Z,99.90
2018-09-06T09:17:51.325Z,99.90
2018-09-06T09:20:18.945Z,99.90
2018-09-06T09:22:46.560Z,99.90
2018-09-06T09:25:14.176Z,99.90
2018-09-06T09:27:42.996Z,99.90
2018-09-06T09:30:10.632Z,99.90
2018-09-06T09:32:38.192Z,99.90
2018-09-06T09:35:05.910Z,99.90
2018-09-06T09:37:33.645Z,99.90
2018-09-06T09:40:01.520Z,99.90
2018-09-06T09:42:29.085Z,99.90
2018-09-06T09:44:56.692Z,99.90
2018-09-06T09:49:51.787Z,99.90
2018-09-06T09:54:47.129Z,99.90
2018-09-06T09:57:14.893Z,99.90
2018-09-06T09:59:42.483Z,99.90
2018-09-06T10:02:15.649Z,99.90
2018-09-06T10:05:46.912Z,99.90
2018-09-06T10:08:20.196Z,99.90
2018-09-06T10:10:47.813Z,99.90
2018-09-06T10:13:15.526Z,99.90
2018-09-06T10:15:43.320Z,99.90
2018-09-06T10:18:10.941Z,99.90
2018-09-06T10:20:39.028Z,99.90
2018-09-06T10:23:06.660Z,99.90
2018-09-06T10:25:34.310Z,99.90
2018-09-06T10:28:02.645Z,99.90
2018-09-06T10:30:30.276Z,99.90
2018-09-06T10:32:57.956Z,99.90
2018-09-06T10:35:25.625Z,99.90
2018-09-06T10:37:53.177Z,99.90
2018-09-06T10:40:20.785Z,99.90
2018-09-06T10:42:48.392Z,99.90
2018-09-06T10:45:16.036Z,99.90
2018-09-06T10:47:43.636Z,99.90
2018-09-06T10:50:11.272Z,99.90
2018-09-06T10:52:38.852Z,99.90
2018-09-06T10:55:06.449Z,99.90
2018-09-06T10:57:34.026Z,99.90
2018-09-06T11:00:01.617Z,99.90
2018-09-06T11:02:29.377Z,99.90
2018-09-06T11:04:56.980Z,99.90
2018-09-06T11:07:24.613Z,99.90
2018-09-06T11:09:52.181Z,99.90
2018-09-06T11:12:20.725Z,99.90
2018-09-06T11:14:48.309Z,99.90
2018-09-06T11:17:15.868Z,99.90
2018-09-06T11:19:43.467Z,99.90
2018-09-06T11:22:11.254Z,99.90
2018-09-06T11:24:38.727Z,99.90
2018-09-06T11:27:06.337Z,99.90
2018-09-06T11:29:34.010Z,99.90
2018-09-06T11:32:01.611Z,99.90
2018-09-06T11:34:29.240Z,99.90
2018-09-06T11:36:56.857Z,99.90
2018-09-06T11:39:24.460Z,99.90
2018-09-06T11:41:52.109Z,99.90
2018-09-06T11:44:19.725Z,99.90
2018-09-06T11:46:47.417Z,99.90
2018-09-06T11:49:14.980Z,99.90
2018-09-06T11:51:42.657Z,99.90
2018-09-06T11:54:10.832Z,99.90
2018-09-06T11:56:38.434Z,99.90
2018-09-06T11:59:06.053Z,99.90
2018-09-06T12:01:33.701Z,99.90
2018-09-06T12:04:01.396Z,99.90
2018-09-06T12:06:28.990Z,99.90
2018-09-06T12:08:56.596Z,99.90
2018-09-06T12:11:24.308Z,99.90
2018-09-06T12:13:52.026Z,99.90
2018-09-06T12:16:19.615Z,99.90
2018-09-06T12:18:47.804Z,99.90
2018-09-06T12:21:15.446Z,99.90
2018-09-06T12:23:43.089Z,99.90
2018-09-06T12:26:10.705Z,99.90
2018-09-06T12:28:38.312Z,99.90
2018-09-06T12:31:05.885Z,99.90
2018-09-06T12:33:33.693Z,99.50
2018-09-06T12:36:01.686Z,99.90
2018-09-06T12:38:30.088Z,99.90
2018-09-06T12:40:58.515Z,99.90
2018-09-06T12:43:26.177Z,99.90
2018-09-06T12:45:53.832Z,98.40
2018-09-06T12:48:21.419Z,98.10
2018-09-06T12:50:50.251Z,93.90
2018-09-06T12:53:17.843Z,91.80
2018-09-06T12:55:45.396Z,91.70
2018-09-06T12:58:12.998Z,92.20
2018-09-06T13:00:40.637Z,86.30
2018-09-06T13:03:08.248Z,84.40
2018-09-06T13:05:35.813Z,79.30
2018-09-06T13:08:03.483Z,74.90
2018-09-06T13:10:31.024Z,72.20
2018-09-06T13:12:58.647Z,70.30
2018-09-06T13:15:26.217Z,74.30
2018-09-06T13:17:53.883Z,73.10
2018-09-06T13:20:21.457Z,67.50
2018-09-06T13:22:49.056Z,70.60
2018-09-06T13:25:16.628Z,68.70
2018-09-06T13:27:44.223Z,65.70
2018-09-06T13:30:11.800Z,64.80
2018-09-06T13:32:39.376Z,63.00
2018-09-06T13:35:07.143Z,65.40
2018-09-06T13:37:35.769Z,64.70
2018-09-06T13:40:03.580Z,62.90
2018-09-06T13:42:31.178Z,61.10
2018-09-06T13:44:58.769Z,61.10
2018-09-06T13:47:27.407Z,60.00
2018-09-06T13:49:55.000Z,61.70
2018-09-06T13:52:22.596Z,62.30
2018-09-06T13:54:50.772Z,60.60
2018-09-06T13:57:18.342Z,60.20
2018-09-06T13:59:45.913Z,62.00
2018-09-06T14:02:13.529Z,60.60
2018-09-06T14:04:41.115Z,59.90
2018-09-06T14:07:08.781Z,57.70
2018-09-06T14:09:36.389Z,58.00
2018-09-06T14:12:04.733Z,59.90
2018-09-06T14:14:32.432Z,58.30
2018-09-06T14:17:00.620Z,60.10
2018-09-06T14:19:28.188Z,57.80
2018-09-06T14:21:55.793Z,58.20
2018-09-06T14:24:23.353Z,57.90
2018-09-06T14:26:50.948Z,58.20
2018-09-06T14:29:18.516Z,56.90
2018-09-06T14:31:46.177Z,57.90
2018-09-06T14:34:13.748Z,57.80
2018-09-06T14:36:41.328Z,58.00
2018-09-06T14:39:09.065Z,56.70
2018-09-06T14:41:36.829Z,56.20
2018-09-06T14:44:04.465Z,57.00
2018-09-06T14:46:32.018Z,56.10
2018-09-06T14:48:59.593Z,55.10
2018-09-06T14:51:27.214Z,54.10
2018-09-06T14:53:54.764Z,55.30
2018-09-06T14:56:22.509Z,57.10
2018-09-06T14:58:50.074Z,57.10
2018-09-06T15:01:17.691Z,57.90
2018-09-06T15:03:45.289Z,55.90
2018-09-06T15:06:12.900Z,58.00
2018-09-06T15:08:40.476Z,57.80
2018-09-06T15:11:09.095Z,58.50
2018-09-06T15:13:36.728Z,57.40
2018-09-06T15:16:04.407Z,57.90
2018-09-06T15:18:31.989Z,57.90
2018-09-06T15:20:59.588Z,57.40
2018-09-06T15:23:27.168Z,56.00
2018-09-06T15:26:01.476Z,55.70
2018-09-06T15:28:29.085Z,55.10
2018-09-06T15:30:56.756Z,53.00
2018-09-06T15:33:24.322Z,54.20
2018-09-06T15:35:51.996Z,56.50
2018-09-06T15:38:19.580Z,55.50
2018-09-06T15:40:47.185Z,56.80
2018-09-06T15:43:14.787Z,54.90
2018-09-06T15:45:42.428Z,54.80
2018-09-06T15:48:09.994Z,55.00
2018-09-06T15:50:37.597Z,55.80
2018-09-06T15:53:05.197Z,55.30
2018-09-06T15:55:32.781Z,55.20
2018-09-06T15:58:00.341Z,55.80
2018-09-06T16:00:27.912Z,57.00
2018-09-06T16:02:55.480Z,57.80
2018-09-06T16:05:23.089Z,57.70
2018-09-06T16:07:50.746Z,58.40
2018-09-06T16:10:18.288Z,57.30
2018-09-06T16:12:45.876Z,56.60
2018-09-06T16:15:13.453Z,55.60
2018-09-06T16:17:41.033Z,55.80
2018-09-06T16:20:08.925Z,56.50
2018-09-06T16:22:36.536Z,57.70
2018-09-06T16:25:04.160Z,56.80
2018-09-06T16:27:31.741Z,56.60
2018-09-06T16:29:59.421Z,57.70
2018-09-06T16:32:26.980Z,57.60
2018-09-06T16:34:54.558Z,58.80
2018-09-06T16:37:22.135Z,59.50
2018-09-06T16:39:50.387Z,58.50
2018-09-06T16:42:17.957Z,58.80
2018-09-06T16:44:45.544Z,59.30
2018-09-06T16:47:13.121Z,59.70
2018-09-06T16:49:40.708Z,61.30
2018-09-06T16:52:08.305Z,62.90
2018-09-06T16:54:36.903Z,65.90
2018-09-06T16:57:04.501Z,67.90
2018-09-06T16:59:32.072Z,69.50
2018-09-06T17:01:59.679Z,70.00
2018-09-06T17:04:27.305Z,74.00
2018-09-06T17:06:54.973Z,73.70
2018-09-06T17:09:22.533Z,76.40
2018-09-06T17:11:50.108Z,77.00
2018-09-06T17:14:18.740Z,79.50
2018-09-06T17:16:46.428Z,80.70
2018-09-06T17:19:14.020Z,81.70
2018-09-06T17:21:41.584Z,83.40
2018-09-06T17:24:09.154Z,83.40
2018-09-06T17:26:36.773Z,84.40
2018-09-06T17:29:04.443Z,91.90
2018-09-06T17:31:32.147Z,94.70
2018-09-06T17:33:59.731Z,97.60
2018-09-06T17:36:27.358Z,99.90
2018-09-06T17:38:54.989Z,99.90
2018-09-06T17:41:22.524Z,99.90
2018-09-06T17:43:50.128Z,99.90
2018-09-06T17:46:17.704Z,99.90
2018-09-06T17:48:45.284Z,99.90
2018-09-06T17:51:12.888Z,99.90
2018-09-06T17:53:40.464Z,99.90
2018-09-06T17:56:08.026Z,99.90
2018-09-06T17:58:35.621Z,99.90
2018-09-06T18:01:40.464Z,99.90
2018-09-06T18:04:08.245Z,99.90
2018-09-06T18:06:35.852Z,99.90
2018-09-06T18:09:09.184Z,99.90
2018-09-06T18:11:36.820Z,99.90
2018-09-06T18:14:05.260Z,99.90
2018-09-06T18:16:32.900Z,99.90
2018-09-06T18:19:00.524Z,99.90
2018-09-06T18:21:28.110Z,99.90
2018-09-06T18:23:56.401Z,99.90
2018-09-06T18:26:24.077Z,99.90
2018-09-06T18:28:51.784Z,99.90
2018-09-06T18:31:19.345Z,99.90
2018-09-06T18:33:46.966Z,99.90
2018-09-06T18:36:14.600Z,99.90
2018-09-06T18:38:42.835Z,99.90
2018-09-06T18:41:10.403Z,99.90
2018-09-06T18:43:38.117Z,99.90
2018-09-06T18:46:06.723Z,99.90
2018-09-06T18:48:34.312Z,99.90
2018-09-06T18:51:01.928Z,99.90
2018-09-06T18:53:29.530Z,99.90
2018-09-06T18:55:57.141Z,99.90
2018-09-06T18:58:24.736Z,99.90
2018-09-06T19:00:52.312Z,99.90
2018-09-06T19:03:20.521Z,99.90
2018-09-06T19:05:48.116Z,99.90
2018-09-06T19:08:15.781Z,99.90
2018-09-06T19:10:43.352Z,99.90
2018-09-06T19:13:10.932Z,99.90
2018-09-06T19:15:38.515Z,99.90
2018-09-06T19:18:05.885Z,99.90
2018-09-06T19:20:33.441Z,99.90
2018-09-06T19:23:01.012Z,99.90
2018-09-06T19:25:28.618Z,99.90
2018-09-06T19:27:56.264Z,99.90
2018-09-06T19:30:23.928Z,99.90
2018-09-06T19:32:51.576Z,99.90
2018-09-06T19:35:19.189Z,99.90
2018-09-06T19:37:46.963Z,99.90
2018-09-06T19:40:14.569Z,99.90
2018-09-06T19:42:42.184Z,99.90
2018-09-06T19:45:10.767Z,99.90
2018-09-06T19:47:38.551Z,99.90
2018-09-06T19:50:06.157Z,99.90
2018-09-06T19:52:33.749Z,99.90
2018-09-06T19:55:01.317Z,99.90
2018-09-06T19:57:28.936Z,99.90
2018-09-06T19:59:56.628Z,99.90
2018-09-06T20:02:24.269Z,99.90
2018-09-06T20:04:53.624Z,99.90
2018-09-06T20:07:21.273Z,99.90
2018-09-06T20:09:48.881Z,99.90
2018-09-06T20:12:17.504Z,99.90
2018-09-06T20:14:45.144Z,99.90
2018-09-06T20:17:13.004Z,99.90
2018-09-06T20:19:40.614Z,99.90
2018-09-06T20:22:09.120Z,99.90
2018-09-06T20:24:36.679Z,99.90
2018-09-06T20:27:04.388Z,99.90
2018-09-06T20:29:31.968Z,99.90
2018-09-06T20:31:59.566Z,99.90
2018-09-06T20:34:27.185Z,99.90
2018-09-06T20:36:54.973Z,99.90
2018-09-06T20:39:22.525Z,99.90
2018-09-06T20:41:50.315Z,99.90
2018-09-06T20:44:17.856Z,99.90
2018-09-06T20:46:45.485Z,99.90
2018-09-06T20:49:13.079Z,99.90
2018-09-06T20:51:40.729Z,99.90
2018-09-06T20:54:08.401Z,99.90
2018-09-06T20:56:36.031Z,99.90
2018-09-06T20:59:03.632Z,99.90
2018-09-06T21:01:31.229Z,99.90
2018-09-06T21:03:58.805Z,99.90
2018-09-06T21:06:26.436Z,99.90
2018-09-06T21:08:54.032Z,99.90
2018-09-06T21:11:21.723Z,99.90
2018-09-06T21:13:49.308Z,99.90
2018-09-06T21:16:17.855Z,99.90
2018-09-06T21:18:45.412Z,99.90
2018-09-06T21:21:15.056Z,99.90
2018-09-06T21:23:42.629Z,99.90
2018-09-06T21:26:10.200Z,99.90
2018-09-06T21:28:38.489Z,99.90
2018-09-06T21:31:06.205Z,99.90
2018-09-06T21:33:33.770Z,99.90
2018-09-06T21:36:01.401Z,99.90
2018-09-06T21:38:28.973Z,99.90
2018-09-06T21:40:56.549Z,99.90
2018-09-06T21:43:24.981Z,99.90
2018-09-06T21:45:52.611Z,99.90
2018-09-06T21:48:20.785Z,99.90
2018-09-06T21:50:48.999Z,99.90
2018-09-06T21:53:16.568Z,99.90
2018-09-06T21:55:44.168Z,99.90
2018-09-06T21:58:11.732Z,99.90
2018-09-06T22:00:39.513Z,99.90
2018-09-06T22:03:12.756Z,99.90
2018-09-06T22:05:40.377Z,99.90
2018-09-06T22:08:07.943Z,99.90
2018-09-06T22:10:35.546Z,99.90
2018-09-06T22:13:03.172Z,99.90
2018-09-06T22:15:30.833Z,99.90
2018-09-06T22:17:58.458Z,99.90
2018-09-06T22:20:26.093Z,99.90
2018-09-06T22:22:53.717Z,99.90
2018-09-06T22:25:21.317Z,99.90
2018-09-06T22:27:48.919Z,99.90
2018-09-06T22:30:16.607Z,99.90
2018-09-06T22:32:44.339Z,99.90
2018-09-06T22:35:11.984Z,99.90
2018-09-06T22:37:39.564Z,99.90
2018-09-06T22:40:07.214Z,99.90
2018-09-06T22:42:34.958Z,99.90
2018-09-06T22:45:02.617Z,99.90
2018-09-06T22:47:30.826Z,99.90
2018-09-06T22:49:58.484Z,99.90
2018-09-06T22:52:26.152Z,99.90
2018-09-06T22:54:53.892Z,99.90
2018-09-06T22:57:21.512Z,99.90
2018-09-06T22:59:49.121Z,99.90
2018-09-06T23:02:16.704Z,99.90
2018-09-06T23:04:44.331Z,99.90
2018-09-06T23:07:11.978Z,99.90
2018-09-06T23:09:39.573Z,99.90
2018-09-06T23:12:07.144Z,99.90
2018-09-06T23:14:34.773Z,99.90
2018-09-06T23:17:02.377Z,99.90
2018-09-06T23:19:29.952Z,99.90
2018-09-06T23:21:57.576Z,99.90
2018-09-06T23:24:25.228Z,99.90
2018-09-06T23:26:52.882Z,99.90
2018-09-06T23:29:20.491Z,99.90
2018-09-06T23:31:48.072Z,99.90
2018-09-06T23:34:15.653Z,99.90
2018-09-06T23:36:43.257Z,99.90
2018-09-06T23:39:10.853Z,99.90
2018-09-06T23:41:38.431Z,99.90
2018-09-06T23:44:06.137Z,99.90
2018-09-06T23:46:33.729Z,99.90
2018-09-06T23:49:01.317Z,99.90
2018-09-06T23:51:28.953Z,99.90
2018-09-06T23:53:56.556Z,99.90
2018-09-06T23:56:24.200Z,99.90
2018-09-06T23:58:51.821Z,99.90
